sensor_id;sensor_type;location;lat;lon;timestamp;P1;durP1;ratioP1;P2;durP2;ratioP2
56413;SDS011;42318;48.452;19.526;2024-02-21T00:02:03;4.88;;;2.55;;
56413;SDS011;42318;48.452;19.526;2024-02-21T00:05:04;3.83;;;2.42;;
56413;SDS011;42318;48.452;19.526;2024-02-21T00:08:05;3.15;;;2.30;;
56413;SDS011;42318;48.452;19.526;2024-02-21T00:11:06;3.08;;;2.60;;
56413;SDS011;42318;48.452;19.526;2024-02-21T00:14:07;2.97;;;2.47;;
56413;SDS011;42318;48.452;19.526;2024-02-21T00:17:07;3.45;;;2.20;;
56413;SDS011;42318;48.452;19.526;2024-02-21T00:20:09;3.38;;;2.50;;
56413;SDS011;42318;48.452;19.526;2024-02-21T00:23:10;2.97;;;2.58;;
56413;SDS011;42318;48.452;19.526;2024-02-21T00:26:11;3.38;;;2.40;;
56413;SDS011;42318;48.452;19.526;2024-02-21T00:29:13;2.90;;;2.58;;
56413;SDS011;42318;48.452;19.526;2024-02-21T00:32:14;3.22;;;2.53;;
56413;SDS011;42318;48.452;19.526;2024-02-21T00:35:14;3.30;;;2.53;;
56413;SDS011;42318;48.452;19.526;2024-02-21T00:38:15;3.65;;;2.28;;
56413;SDS011;42318;48.452;19.526;2024-02-21T00:41:16;3.28;;;2.22;;
56413;SDS011;42318;48.452;19.526;2024-02-21T00:44:18;2.90;;;2.38;;
56413;SDS011;42318;48.452;19.526;2024-02-21T00:47:18;2.85;;;2.25;;
56413;SDS011;42318;48.452;19.526;2024-02-21T00:50:19;3.95;;;2.30;;
56413;SDS011;42318;48.452;19.526;2024-02-21T00:53:20;2.80;;;2.33;;
56413;SDS011;42318;48.452;19.526;2024-02-21T00:56:21;3.17;;;2.53;;
56413;SDS011;42318;48.452;19.526;2024-02-21T00:59:21;3.35;;;2.38;;
56413;SDS011;42318;48.452;19.526;2024-02-21T01:02:22;2.95;;;2.13;;
56413;SDS011;42318;48.452;19.526;2024-02-21T01:05:23;2.50;;;2.30;;
56413;SDS011;42318;48.452;19.526;2024-02-21T01:08:23;2.65;;;2.05;;
56413;SDS011;42318;48.452;19.526;2024-02-21T01:11:24;2.95;;;2.22;;
56413;SDS011;42318;48.452;19.526;2024-02-21T01:14:25;3.85;;;2.47;;
56413;SDS011;42318;48.452;19.526;2024-02-21T01:17:25;2.60;;;2.10;;
56413;SDS011;42318;48.452;19.526;2024-02-21T01:20:26;2.78;;;2.17;;
56413;SDS011;42318;48.452;19.526;2024-02-21T01:23:26;2.45;;;2.05;;
56413;SDS011;42318;48.452;19.526;2024-02-21T01:26:27;2.80;;;2.00;;
56413;SDS011;42318;48.452;19.526;2024-02-21T01:29:27;3.58;;;2.40;;
56413;SDS011;42318;48.452;19.526;2024-02-21T01:32:28;2.90;;;2.40;;
56413;SDS011;42318;48.452;19.526;2024-02-21T01:35:29;2.65;;;2.03;;
56413;SDS011;42318;48.452;19.526;2024-02-21T01:38:29;2.35;;;2.05;;
56413;SDS011;42318;48.452;19.526;2024-02-21T01:41:32;3.53;;;2.35;;
56413;SDS011;42318;48.452;19.526;2024-02-21T01:44:32;2.65;;;1.92;;
56413;SDS011;42318;48.452;19.526;2024-02-21T01:47:33;3.05;;;2.00;;
56413;SDS011;42318;48.452;19.526;2024-02-21T01:50:35;2.75;;;1.85;;
56413;SDS011;42318;48.452;19.526;2024-02-21T01:53:37;2.92;;;2.10;;
56413;SDS011;42318;48.452;19.526;2024-02-21T01:56:41;2.63;;;1.92;;
56413;SDS011;42318;48.452;19.526;2024-02-21T01:59:42;3.08;;;2.22;;
56413;SDS011;42318;48.452;19.526;2024-02-21T02:02:43;3.10;;;2.08;;
56413;SDS011;42318;48.452;19.526;2024-02-21T02:05:45;2.40;;;1.98;;
56413;SDS011;42318;48.452;19.526;2024-02-21T02:08:47;3.22;;;2.28;;
56413;SDS011;42318;48.452;19.526;2024-02-21T02:11:47;2.60;;;1.83;;
56413;SDS011;42318;48.452;19.526;2024-02-21T02:14:57;2.63;;;1.90;;
56413;SDS011;42318;48.452;19.526;2024-02-21T02:17:58;2.10;;;1.90;;
56413;SDS011;42318;48.452;19.526;2024-02-21T02:20:59;2.30;;;1.75;;
56413;SDS011;42318;48.452;19.526;2024-02-21T02:24:00;2.53;;;1.85;;
56413;SDS011;42318;48.452;19.526;2024-02-21T02:27:01;2.15;;;1.60;;
56413;SDS011;42318;48.452;19.526;2024-02-21T02:30:01;2.45;;;1.77;;
56413;SDS011;42318;48.452;19.526;2024-02-21T02:33:03;2.63;;;2.08;;
56413;SDS011;42318;48.452;19.526;2024-02-21T02:36:05;2.00;;;1.80;;
56413;SDS011;42318;48.452;19.526;2024-02-21T02:39:06;2.55;;;1.58;;
56413;SDS011;42318;48.452;19.526;2024-02-21T02:42:06;2.67;;;1.85;;
56413;SDS011;42318;48.452;19.526;2024-02-21T02:45:07;2.30;;;1.70;;
56413;SDS011;42318;48.452;19.526;2024-02-21T02:48:09;2.65;;;2.00;;
56413;SDS011;42318;48.452;19.526;2024-02-21T02:51:10;2.20;;;1.80;;
56413;SDS011;42318;48.452;19.526;2024-02-21T02:54:11;3.15;;;1.90;;
56413;SDS011;42318;48.452;19.526;2024-02-21T02:57:12;2.70;;;1.83;;
56413;SDS011;42318;48.452;19.526;2024-02-21T03:00:13;2.00;;;1.58;;
56413;SDS011;42318;48.452;19.526;2024-02-21T03:03:14;2.20;;;1.70;;
56413;SDS011;42318;48.452;19.526;2024-02-21T03:06:15;2.50;;;1.60;;
56413;SDS011;42318;48.452;19.526;2024-02-21T03:09:16;2.50;;;1.92;;
56413;SDS011;42318;48.452;19.526;2024-02-21T03:12:17;2.67;;;1.88;;
56413;SDS011;42318;48.452;19.526;2024-02-21T03:15:28;2.20;;;1.65;;
56413;SDS011;42318;48.452;19.526;2024-02-21T03:18:28;2.17;;;1.90;;
56413;SDS011;42318;48.452;19.526;2024-02-21T03:21:29;2.45;;;1.70;;
56413;SDS011;42318;48.452;19.526;2024-02-21T03:24:30;2.40;;;1.67;;
56413;SDS011;42318;48.452;19.526;2024-02-21T03:27:31;2.20;;;1.70;;
56413;SDS011;42318;48.452;19.526;2024-02-21T03:30:32;2.42;;;1.45;;
56413;SDS011;42318;48.452;19.526;2024-02-21T03:33:34;2.58;;;1.65;;
56413;SDS011;42318;48.452;19.526;2024-02-21T03:36:34;1.98;;;1.52;;
56413;SDS011;42318;48.452;19.526;2024-02-21T03:39:35;1.95;;;1.50;;
56413;SDS011;42318;48.452;19.526;2024-02-21T03:42:37;2.13;;;1.77;;
56413;SDS011;42318;48.452;19.526;2024-02-21T03:45:38;2.35;;;1.73;;
56413;SDS011;42318;48.452;19.526;2024-02-21T03:48:38;2.58;;;1.75;;
56413;SDS011;42318;48.452;19.526;2024-02-21T03:51:39;2.33;;;1.67;;
56413;SDS011;42318;48.452;19.526;2024-02-21T03:54:40;1.85;;;1.50;;
56413;SDS011;42318;48.452;19.526;2024-02-21T03:57:40;2.13;;;1.60;;
56413;SDS011;42318;48.452;19.526;2024-02-21T04:00:41;1.77;;;1.50;;
56413;SDS011;42318;48.452;19.526;2024-02-21T04:03:43;2.30;;;1.50;;
56413;SDS011;42318;48.452;19.526;2024-02-21T04:06:50;2.67;;;1.80;;
56413;SDS011;42318;48.452;19.526;2024-02-21T04:09:51;2.10;;;1.58;;
56413;SDS011;42318;48.452;19.526;2024-02-21T04:12:52;1.67;;;1.38;;
56413;SDS011;42318;48.452;19.526;2024-02-21T04:15:52;1.67;;;1.30;;
56413;SDS011;42318;48.452;19.526;2024-02-21T04:18:53;1.75;;;1.30;;
56413;SDS011;42318;48.452;19.526;2024-02-21T04:21:54;1.58;;;1.20;;
56413;SDS011;42318;48.452;19.526;2024-02-21T04:24:54;1.55;;;1.40;;
56413;SDS011;42318;48.452;19.526;2024-02-21T04:27:55;2.60;;;1.40;;
56413;SDS011;42318;48.452;19.526;2024-02-21T04:30:55;1.77;;;1.40;;
56413;SDS011;42318;48.452;19.526;2024-02-21T04:33:56;1.75;;;1.33;;
56413;SDS011;42318;48.452;19.526;2024-02-21T04:36:57;1.70;;;1.45;;
56413;SDS011;42318;48.452;19.526;2024-02-21T04:39:57;1.73;;;1.23;;
56413;SDS011;42318;48.452;19.526;2024-02-21T04:42:58;1.95;;;1.60;;
56413;SDS011;42318;48.452;19.526;2024-02-21T04:45:59;2.17;;;1.42;;
56413;SDS011;42318;48.452;19.526;2024-02-21T04:49:00;2.10;;;1.48;;
56413;SDS011;42318;48.452;19.526;2024-02-21T04:52:01;1.90;;;1.35;;
56413;SDS011;42318;48.452;19.526;2024-02-21T04:55:01;1.88;;;1.40;;
56413;SDS011;42318;48.452;19.526;2024-02-21T04:58:02;2.00;;;1.40;;
56413;SDS011;42318;48.452;19.526;2024-02-21T05:01:03;1.75;;;1.33;;
56413;SDS011;42318;48.452;19.526;2024-02-21T05:04:04;1.85;;;1.35;;
56413;SDS011;42318;48.452;19.526;2024-02-21T05:07:04;3.05;;;1.38;;
56413;SDS011;42318;48.452;19.526;2024-02-21T05:10:06;1.80;;;1.25;;
56413;SDS011;42318;48.452;19.526;2024-02-21T05:13:07;1.95;;;1.42;;
56413;SDS011;42318;48.452;19.526;2024-02-21T05:16:08;1.70;;;1.30;;
56413;SDS011;42318;48.452;19.526;2024-02-21T05:19:08;2.17;;;1.40;;
56413;SDS011;42318;48.452;19.526;2024-02-21T05:22:09;1.88;;;1.50;;
56413;SDS011;42318;48.452;19.526;2024-02-21T05:25:10;1.50;;;1.17;;
56413;SDS011;42318;48.452;19.526;2024-02-21T05:28:10;1.90;;;1.27;;
56413;SDS011;42318;48.452;19.526;2024-02-21T05:31:11;1.92;;;1.40;;
56413;SDS011;42318;48.452;19.526;2024-02-21T05:34:12;1.70;;;1.20;;
56413;SDS011;42318;48.452;19.526;2024-02-21T05:37:12;1.67;;;1.25;;
56413;SDS011;42318;48.452;19.526;2024-02-21T05:40:13;1.65;;;1.25;;
56413;SDS011;42318;48.452;19.526;2024-02-21T05:43:13;1.60;;;1.20;;
56413;SDS011;42318;48.452;19.526;2024-02-21T05:46:14;2.03;;;1.50;;
56413;SDS011;42318;48.452;19.526;2024-02-21T05:49:19;2.42;;;1.30;;
56413;SDS011;42318;48.452;19.526;2024-02-21T05:52:19;1.67;;;1.27;;
56413;SDS011;42318;48.452;19.526;2024-02-21T05:55:20;1.50;;;1.10;;
56413;SDS011;42318;48.452;19.526;2024-02-21T05:58:21;1.50;;;1.27;;
56413;SDS011;42318;48.452;19.526;2024-02-21T06:01:22;1.60;;;1.10;;
56413;SDS011;42318;48.452;19.526;2024-02-21T06:04:22;2.65;;;1.27;;
56413;SDS011;42318;48.452;19.526;2024-02-21T06:07:23;1.42;;;1.23;;
56413;SDS011;42318;48.452;19.526;2024-02-21T06:10:24;1.83;;;1.13;;
56413;SDS011;42318;48.452;19.526;2024-02-21T06:13:24;1.85;;;1.20;;
56413;SDS011;42318;48.452;19.526;2024-02-21T06:16:25;2.10;;;1.20;;
56413;SDS011;42318;48.452;19.526;2024-02-21T06:19:26;1.92;;;1.27;;
56413;SDS011;42318;48.452;19.526;2024-02-21T06:22:26;2.03;;;1.27;;
56413;SDS011;42318;48.452;19.526;2024-02-21T06:25:27;2.42;;;1.13;;
56413;SDS011;42318;48.452;19.526;2024-02-21T06:28:27;1.48;;;1.17;;
56413;SDS011;42318;48.452;19.526;2024-02-21T06:31:28;1.35;;;1.00;;
56413;SDS011;42318;48.452;19.526;2024-02-21T06:34:29;1.42;;;1.13;;
56413;SDS011;42318;48.452;19.526;2024-02-21T06:37:29;2.28;;;1.48;;
56413;SDS011;42318;48.452;19.526;2024-02-21T06:40:32;1.80;;;1.27;;
56413;SDS011;42318;48.452;19.526;2024-02-21T06:43:38;1.40;;;1.20;;
56413;SDS011;42318;48.452;19.526;2024-02-21T06:46:39;2.53;;;1.40;;
56413;SDS011;42318;48.452;19.526;2024-02-21T06:49:39;1.73;;;1.30;;
56413;SDS011;42318;48.452;19.526;2024-02-21T06:52:41;1.70;;;1.10;;
56413;SDS011;42318;48.452;19.526;2024-02-21T06:55:41;2.15;;;1.30;;
56413;SDS011;42318;48.452;19.526;2024-02-21T06:58:42;1.45;;;1.20;;
56413;SDS011;42318;48.452;19.526;2024-02-21T07:01:46;1.85;;;1.10;;
56413;SDS011;42318;48.452;19.526;2024-02-21T07:04:48;1.58;;;1.20;;
56413;SDS011;42318;48.452;19.526;2024-02-21T07:07:50;1.88;;;1.17;;
56413;SDS011;42318;48.452;19.526;2024-02-21T07:10:51;2.10;;;1.40;;
56413;SDS011;42318;48.452;19.526;2024-02-21T07:13:52;1.83;;;1.23;;
56413;SDS011;42318;48.452;19.526;2024-02-21T07:16:52;1.67;;;1.15;;
56413;SDS011;42318;48.452;19.526;2024-02-21T07:19:53;1.50;;;1.10;;
56413;SDS011;42318;48.452;19.526;2024-02-21T07:22:57;2.33;;;1.40;;
56413;SDS011;42318;48.452;19.526;2024-02-21T07:25:57;1.80;;;1.08;;
56413;SDS011;42318;48.452;19.526;2024-02-21T07:29:00;2.40;;;1.40;;
56413;SDS011;42318;48.452;19.526;2024-02-21T07:32:00;1.35;;;1.10;;
56413;SDS011;42318;48.452;19.526;2024-02-21T07:35:01;1.60;;;1.30;;
56413;SDS011;42318;48.452;19.526;2024-02-21T07:38:02;1.70;;;1.30;;
56413;SDS011;42318;48.452;19.526;2024-02-21T07:41:04;1.52;;;1.23;;
56413;SDS011;42318;48.452;19.526;2024-02-21T07:44:04;2.40;;;1.20;;
56413;SDS011;42318;48.452;19.526;2024-02-21T07:47:05;1.70;;;1.25;;
56413;SDS011;42318;48.452;19.526;2024-02-21T07:50:07;1.42;;;1.20;;
56413;SDS011;42318;48.452;19.526;2024-02-21T07:53:08;1.73;;;1.20;;
56413;SDS011;42318;48.452;19.526;2024-02-21T07:56:09;1.63;;;0.98;;
56413;SDS011;42318;48.452;19.526;2024-02-21T07:59:09;1.70;;;1.30;;
56413;SDS011;42318;48.452;19.526;2024-02-21T08:02:10;1.73;;;1.33;;
56413;SDS011;42318;48.452;19.526;2024-02-21T08:05:12;1.27;;;1.00;;
56413;SDS011;42318;48.452;19.526;2024-02-21T08:08:13;1.70;;;1.20;;
56413;SDS011;42318;48.452;19.526;2024-02-21T08:11:18;2.28;;;1.00;;
56413;SDS011;42318;48.452;19.526;2024-02-21T08:14:19;1.60;;;1.23;;
56413;SDS011;42318;48.452;19.526;2024-02-21T08:17:20;1.70;;;1.10;;
56413;SDS011;42318;48.452;19.526;2024-02-21T08:20:20;1.67;;;1.20;;
56413;SDS011;42318;48.452;19.526;2024-02-21T08:23:23;1.90;;;1.25;;
56413;SDS011;42318;48.452;19.526;2024-02-21T08:26:23;1.10;;;1.00;;
56413;SDS011;42318;48.452;19.526;2024-02-21T08:29:24;2.50;;;1.20;;
56413;SDS011;42318;48.452;19.526;2024-02-21T08:32:25;1.52;;;1.10;;
56413;SDS011;42318;48.452;19.526;2024-02-21T08:35:25;1.70;;;1.30;;
56413;SDS011;42318;48.452;19.526;2024-02-21T08:38:26;1.85;;;1.23;;
56413;SDS011;42318;48.452;19.526;2024-02-21T08:41:27;1.50;;;1.10;;
56413;SDS011;42318;48.452;19.526;2024-02-21T08:44:27;1.63;;;1.17;;
56413;SDS011;42318;48.452;19.526;2024-02-21T08:47:28;1.35;;;1.00;;
56413;SDS011;42318;48.452;19.526;2024-02-21T08:50:29;2.65;;;1.20;;
56413;SDS011;42318;48.452;19.526;2024-02-21T08:53:30;1.75;;;1.13;;
56413;SDS011;42318;48.452;19.526;2024-02-21T08:56:30;2.05;;;1.02;;
56413;SDS011;42318;48.452;19.526;2024-02-21T08:59:31;2.42;;;1.10;;
56413;SDS011;42318;48.452;19.526;2024-02-21T09:02:32;1.67;;;1.17;;
56413;SDS011;42318;48.452;19.526;2024-02-21T09:05:33;2.17;;;1.33;;
56413;SDS011;42318;48.452;19.526;2024-02-21T09:08:35;1.65;;;1.13;;
56413;SDS011;42318;48.452;19.526;2024-02-21T09:11:36;2.38;;;1.90;;
56413;SDS011;42318;48.452;19.526;2024-02-21T09:14:37;2.38;;;1.45;;
56413;SDS011;42318;48.452;19.526;2024-02-21T09:17:39;1.95;;;1.02;;
56413;SDS011;42318;48.452;19.526;2024-02-21T09:20:39;1.38;;;1.05;;
56413;SDS011;42318;48.452;19.526;2024-02-21T09:23:40;1.90;;;1.08;;
56413;SDS011;42318;48.452;19.526;2024-02-21T09:26:40;2.47;;;1.38;;
56413;SDS011;42318;48.452;19.526;2024-02-21T09:29:41;2.30;;;1.05;;
56413;SDS011;42318;48.452;19.526;2024-02-21T09:32:42;1.60;;;1.20;;
56413;SDS011;42318;48.452;19.526;2024-02-21T09:35:42;2.20;;;1.30;;
56413;SDS011;42318;48.452;19.526;2024-02-21T09:38:43;2.10;;;1.25;;
56413;SDS011;42318;48.452;19.526;2024-02-21T09:41:45;2.03;;;1.00;;
56413;SDS011;42318;48.452;19.526;2024-02-21T09:44:52;1.35;;;0.93;;
56413;SDS011;42318;48.452;19.526;2024-02-21T09:51:17;3.10;;;1.10;;
56413;SDS011;42318;48.452;19.526;2024-02-21T09:54:19;2.05;;;1.17;;
56413;SDS011;42318;48.452;19.526;2024-02-21T09:57:21;1.85;;;1.42;;
56413;SDS011;42318;48.452;19.526;2024-02-21T10:00:23;1.25;;;1.00;;
56413;SDS011;42318;48.452;19.526;2024-02-21T10:03:23;1.50;;;1.02;;
56413;SDS011;42318;48.452;19.526;2024-02-21T10:06:24;2.05;;;0.95;;
56413;SDS011;42318;48.452;19.526;2024-02-21T10:09:28;2.15;;;1.10;;
56413;SDS011;42318;48.452;19.526;2024-02-21T10:12:29;2.30;;;1.30;;
56413;SDS011;42318;48.452;19.526;2024-02-21T10:15:30;4.40;;;1.30;;
56413;SDS011;42318;48.452;19.526;2024-02-21T10:18:33;4.82;;;1.00;;
56413;SDS011;42318;48.452;19.526;2024-02-21T10:21:34;1.70;;;1.23;;
56413;SDS011;42318;48.452;19.526;2024-02-21T10:24:35;2.75;;;1.30;;
56413;SDS011;42318;48.452;19.526;2024-02-21T10:27:42;2.25;;;1.20;;
56413;SDS011;42318;48.452;19.526;2024-02-21T10:30:50;1.85;;;0.90;;
56413;SDS011;42318;48.452;19.526;2024-02-21T10:33:58;2.17;;;1.27;;
56413;SDS011;42318;48.452;19.526;2024-02-21T10:37:07;1.67;;;0.80;;
56413;SDS011;42318;48.452;19.526;2024-02-21T10:40:09;1.95;;;1.27;;
56413;SDS011;42318;48.452;19.526;2024-02-21T10:43:12;1.38;;;1.00;;
56413;SDS011;42318;48.452;19.526;2024-02-21T10:46:14;2.15;;;1.20;;
56413;SDS011;42318;48.452;19.526;2024-02-21T10:49:22;1.83;;;1.00;;
56413;SDS011;42318;48.452;19.526;2024-02-21T10:55:50;2.63;;;1.20;;
56413;SDS011;42318;48.452;19.526;2024-02-21T10:59:00;1.08;;;0.77;;
56413;SDS011;42318;48.452;19.526;2024-02-21T11:02:02;2.13;;;1.08;;
56413;SDS011;42318;48.452;19.526;2024-02-21T11:05:03;4.57;;;1.00;;
56413;SDS011;42318;48.452;19.526;2024-02-21T11:08:05;2.10;;;0.88;;
56413;SDS011;42318;48.452;19.526;2024-02-21T11:11:06;1.25;;;0.93;;
56413;SDS011;42318;48.452;19.526;2024-02-21T11:14:10;2.13;;;1.20;;
56413;SDS011;42318;48.452;19.526;2024-02-21T11:17:18;5.07;;;1.42;;
56413;SDS011;42318;48.452;19.526;2024-02-21T11:20:21;3.30;;;1.50;;
56413;SDS011;42318;48.452;19.526;2024-02-21T11:23:32;3.33;;;1.13;;
56413;SDS011;42318;48.452;19.526;2024-02-21T11:26:33;4.03;;;1.60;;
56413;SDS011;42318;48.452;19.526;2024-02-21T11:29:46;3.63;;;1.43;;
56413;SDS011;42318;48.452;19.526;2024-02-21T11:32:49;2.60;;;1.50;;
56413;SDS011;42318;48.452;19.526;2024-02-21T11:35:49;3.10;;;1.35;;
56413;SDS011;42318;48.452;19.526;2024-02-21T11:38:51;2.50;;;1.10;;
56413;SDS011;42318;48.452;19.526;2024-02-21T11:42:00;2.45;;;1.30;;
56413;SDS011;42318;48.452;19.526;2024-02-21T11:45:06;3.35;;;1.50;;
56413;SDS011;42318;48.452;19.526;2024-02-21T11:48:08;5.38;;;1.55;;
56413;SDS011;42318;48.452;19.526;2024-02-21T11:51:09;3.88;;;1.38;;
56413;SDS011;42318;48.452;19.526;2024-02-21T11:54:10;2.85;;;1.35;;
56413;SDS011;42318;48.452;19.526;2024-02-21T11:57:11;4.97;;;1.40;;
56413;SDS011;42318;48.452;19.526;2024-02-21T12:00:15;2.25;;;1.15;;
56413;SDS011;42318;48.452;19.526;2024-02-21T12:03:18;3.95;;;1.40;;
56413;SDS011;42318;48.452;19.526;2024-02-21T12:06:18;5.32;;;1.40;;
56413;SDS011;42318;48.452;19.526;2024-02-21T12:09:22;2.78;;;1.20;;
56413;SDS011;42318;48.452;19.526;2024-02-21T12:12:24;2.10;;;1.10;;
56413;SDS011;42318;48.452;19.526;2024-02-21T12:15:24;3.53;;;1.25;;
56413;SDS011;42318;48.452;19.526;2024-02-21T12:18:25;2.45;;;1.27;;
56413;SDS011;42318;48.452;19.526;2024-02-21T12:21:26;3.92;;;1.30;;
56413;SDS011;42318;48.452;19.526;2024-02-21T12:24:30;2.00;;;1.50;;
56413;SDS011;42318;48.452;19.526;2024-02-21T12:27:31;1.80;;;1.17;;
56413;SDS011;42318;48.452;19.526;2024-02-21T12:30:31;3.00;;;1.30;;
56413;SDS011;42318;48.452;19.526;2024-02-21T12:33:33;3.42;;;1.48;;
56413;SDS011;42318;48.452;19.526;2024-02-21T12:36:36;2.88;;;1.40;;
56413;SDS011;42318;48.452;19.526;2024-02-21T12:39:43;2.58;;;1.77;;
56413;SDS011;42318;48.452;19.526;2024-02-21T12:42:44;5.75;;;1.90;;
56413;SDS011;42318;48.452;19.526;2024-02-21T12:45:46;3.35;;;1.92;;
56413;SDS011;42318;48.452;19.526;2024-02-21T12:48:46;2.35;;;1.83;;
56413;SDS011;42318;48.452;19.526;2024-02-21T12:51:47;4.05;;;2.50;;
56413;SDS011;42318;48.452;19.526;2024-02-21T12:54:47;3.83;;;2.22;;
56413;SDS011;42318;48.452;19.526;2024-02-21T12:57:48;3.22;;;2.50;;
56413;SDS011;42318;48.452;19.526;2024-02-21T13:00:49;4.70;;;3.10;;
56413;SDS011;42318;48.452;19.526;2024-02-21T13:03:50;8.98;;;4.93;;
56413;SDS011;42318;48.452;19.526;2024-02-21T13:06:53;10.50;;;7.13;;
56413;SDS011;42318;48.452;19.526;2024-02-21T13:09:55;14.85;;;8.02;;
56413;SDS011;42318;48.452;19.526;2024-02-21T13:12:56;10.52;;;7.88;;
56413;SDS011;42318;48.452;19.526;2024-02-21T13:15:57;13.18;;;7.40;;
56413;SDS011;42318;48.452;19.526;2024-02-21T13:18:58;12.52;;;7.57;;
56413;SDS011;42318;48.452;19.526;2024-02-21T13:21:59;11.15;;;6.97;;
56413;SDS011;42318;48.452;19.526;2024-02-21T13:25:00;13.73;;;7.25;;
56413;SDS011;42318;48.452;19.526;2024-02-21T13:28:01;14.45;;;7.95;;
56413;SDS011;42318;48.452;19.526;2024-02-21T13:31:03;11.07;;;7.07;;
56413;SDS011;42318;48.452;19.526;2024-02-21T13:34:04;11.52;;;7.00;;
56413;SDS011;42318;48.452;19.526;2024-02-21T13:37:04;9.48;;;6.40;;
56413;SDS011;42318;48.452;19.526;2024-02-21T13:40:07;12.93;;;6.78;;
56413;SDS011;42318;48.452;19.526;2024-02-21T13:43:12;10.27;;;6.47;;
56413;SDS011;42318;48.452;19.526;2024-02-21T13:46:13;9.00;;;6.15;;
56413;SDS011;42318;48.452;19.526;2024-02-21T13:49:14;10.50;;;6.13;;
56413;SDS011;42318;48.452;19.526;2024-02-21T13:52:16;10.32;;;6.40;;
56413;SDS011;42318;48.452;19.526;2024-02-21T13:55:17;11.65;;;6.20;;
56413;SDS011;42318;48.452;19.526;2024-02-21T13:58:18;12.43;;;6.13;;
56413;SDS011;42318;48.452;19.526;2024-02-21T14:01:19;10.88;;;5.93;;
56413;SDS011;42318;48.452;19.526;2024-02-21T14:04:19;8.05;;;5.70;;
56413;SDS011;42318;48.452;19.526;2024-02-21T14:07:20;10.15;;;5.95;;
56413;SDS011;42318;48.452;19.526;2024-02-21T14:10:21;8.68;;;5.13;;
56413;SDS011;42318;48.452;19.526;2024-02-21T14:13:23;7.50;;;5.32;;
56413;SDS011;42318;48.452;19.526;2024-02-21T14:16:25;7.80;;;4.90;;
56413;SDS011;42318;48.452;19.526;2024-02-21T14:19:25;7.68;;;4.70;;
56413;SDS011;42318;48.452;19.526;2024-02-21T14:22:26;6.50;;;4.88;;
56413;SDS011;42318;48.452;19.526;2024-02-21T14:25:27;7.72;;;5.22;;
56413;SDS011;42318;48.452;19.526;2024-02-21T14:28:28;8.00;;;5.10;;
56413;SDS011;42318;48.452;19.526;2024-02-21T14:31:30;7.00;;;4.80;;
56413;SDS011;42318;48.452;19.526;2024-02-21T14:34:31;7.22;;;4.85;;
56413;SDS011;42318;48.452;19.526;2024-02-21T14:37:32;9.45;;;4.65;;
56413;SDS011;42318;48.452;19.526;2024-02-21T14:40:33;7.13;;;4.55;;
56413;SDS011;42318;48.452;19.526;2024-02-21T14:43:34;6.32;;;4.18;;
56413;SDS011;42318;48.452;19.526;2024-02-21T14:46:36;8.10;;;4.63;;
56413;SDS011;42318;48.452;19.526;2024-02-21T14:49:38;6.65;;;4.55;;
56413;SDS011;42318;48.452;19.526;2024-02-21T14:52:39;6.65;;;4.18;;
56413;SDS011;42318;48.452;19.526;2024-02-21T14:55:40;5.90;;;3.92;;
56413;SDS011;42318;48.452;19.526;2024-02-21T14:58:42;5.25;;;4.15;;
56413;SDS011;42318;48.452;19.526;2024-02-21T15:01:43;6.50;;;3.92;;
56413;SDS011;42318;48.452;19.526;2024-02-21T15:04:44;7.75;;;3.65;;
56413;SDS011;42318;48.452;19.526;2024-02-21T15:07:44;7.78;;;3.85;;
56413;SDS011;42318;48.452;19.526;2024-02-21T15:10:45;6.13;;;3.90;;
56413;SDS011;42318;48.452;19.526;2024-02-21T15:13:46;6.53;;;3.92;;
56413;SDS011;42318;48.452;19.526;2024-02-21T15:16:46;6.85;;;3.63;;
56413;SDS011;42318;48.452;19.526;2024-02-21T15:19:47;5.78;;;3.50;;
56413;SDS011;42318;48.452;19.526;2024-02-21T15:22:48;7.28;;;3.38;;
56413;SDS011;42318;48.452;19.526;2024-02-21T15:25:49;5.68;;;3.92;;
56413;SDS011;42318;48.452;19.526;2024-02-21T15:28:51;9.10;;;4.20;;
56413;SDS011;42318;48.452;19.526;2024-02-21T15:31:54;5.85;;;3.47;;
56413;SDS011;42318;48.452;19.526;2024-02-21T15:34:54;4.57;;;3.50;;
56413;SDS011;42318;48.452;19.526;2024-02-21T15:37:55;5.47;;;3.20;;
56413;SDS011;42318;48.452;19.526;2024-02-21T15:40:58;5.53;;;3.75;;
56413;SDS011;42318;48.452;19.526;2024-02-21T15:43:59;5.40;;;3.72;;
56413;SDS011;42318;48.452;19.526;2024-02-21T15:47:00;4.30;;;3.40;;
56413;SDS011;42318;48.452;19.526;2024-02-21T15:50:01;7.35;;;4.75;;
56413;SDS011;42318;48.452;19.526;2024-02-21T15:53:02;6.20;;;3.70;;
56413;SDS011;42318;48.452;19.526;2024-02-21T15:56:03;5.53;;;3.47;;
56413;SDS011;42318;48.452;19.526;2024-02-21T15:59:04;5.20;;;3.03;;
56413;SDS011;42318;48.452;19.526;2024-02-21T16:02:05;4.20;;;3.33;;
56413;SDS011;42318;48.452;19.526;2024-02-21T16:05:07;5.63;;;3.22;;
56413;SDS011;42318;48.452;19.526;2024-02-21T16:08:11;6.70;;;3.35;;
56413;SDS011;42318;48.452;19.526;2024-02-21T16:11:14;5.88;;;3.58;;
56413;SDS011;42318;48.452;19.526;2024-02-21T16:14:16;4.80;;;2.90;;
56413;SDS011;42318;48.452;19.526;2024-02-21T16:17:18;3.95;;;2.72;;
56413;SDS011;42318;48.452;19.526;2024-02-21T16:20:19;5.00;;;3.13;;
56413;SDS011;42318;48.452;19.526;2024-02-21T16:23:20;4.32;;;2.70;;
56413;SDS011;42318;48.452;19.526;2024-02-21T16:26:20;4.95;;;2.95;;
56413;SDS011;42318;48.452;19.526;2024-02-21T16:29:22;4.30;;;2.92;;
56413;SDS011;42318;48.452;19.526;2024-02-21T16:32:23;4.30;;;2.65;;
56413;SDS011;42318;48.452;19.526;2024-02-21T16:35:23;4.15;;;2.47;;
56413;SDS011;42318;48.452;19.526;2024-02-21T16:38:25;3.47;;;2.80;;
56413;SDS011;42318;48.452;19.526;2024-02-21T16:41:27;6.85;;;2.97;;
56413;SDS011;42318;48.452;19.526;2024-02-21T16:44:30;4.35;;;2.78;;
56413;SDS011;42318;48.452;19.526;2024-02-21T16:47:33;3.33;;;2.63;;
56413;SDS011;42318;48.452;19.526;2024-02-21T16:50:35;3.45;;;2.60;;
56413;SDS011;42318;48.452;19.526;2024-02-21T16:53:36;4.30;;;2.70;;
56413;SDS011;42318;48.452;19.526;2024-02-21T16:56:36;4.00;;;2.55;;
56413;SDS011;42318;48.452;19.526;2024-02-21T16:59:37;4.97;;;2.42;;
56413;SDS011;42318;48.452;19.526;2024-02-21T17:02:38;3.63;;;2.25;;
56413;SDS011;42318;48.452;19.526;2024-02-21T17:05:39;3.45;;;2.50;;
56413;SDS011;42318;48.452;19.526;2024-02-21T17:08:40;3.33;;;2.20;;
56413;SDS011;42318;48.452;19.526;2024-02-21T17:11:41;4.10;;;2.20;;
56413;SDS011;42318;48.452;19.526;2024-02-21T17:14:42;3.70;;;2.60;;
56413;SDS011;42318;48.452;19.526;2024-02-21T17:17:43;3.25;;;2.47;;
56413;SDS011;42318;48.452;19.526;2024-02-21T17:20:44;4.28;;;2.42;;
56413;SDS011;42318;48.452;19.526;2024-02-21T17:23:45;3.75;;;2.30;;
56413;SDS011;42318;48.452;19.526;2024-02-21T17:26:45;3.78;;;2.45;;
56413;SDS011;42318;48.452;19.526;2024-02-21T17:29:46;4.32;;;2.00;;
56413;SDS011;42318;48.452;19.526;2024-02-21T17:32:47;3.92;;;2.50;;
56413;SDS011;42318;48.452;19.526;2024-02-21T17:35:48;3.15;;;2.42;;
56413;SDS011;42318;48.452;19.526;2024-02-21T17:38:49;3.15;;;2.00;;
56413;SDS011;42318;48.452;19.526;2024-02-21T17:41:51;4.13;;;2.40;;
56413;SDS011;42318;48.452;19.526;2024-02-21T17:44:53;3.00;;;2.38;;
56413;SDS011;42318;48.452;19.526;2024-02-21T17:47:54;3.33;;;2.33;;
56413;SDS011;42318;48.452;19.526;2024-02-21T17:50:54;4.13;;;2.17;;
56413;SDS011;42318;48.452;19.526;2024-02-21T17:53:56;2.60;;;1.95;;
56413;SDS011;42318;48.452;19.526;2024-02-21T17:56:56;3.70;;;2.17;;
56413;SDS011;42318;48.452;19.526;2024-02-21T17:59:57;2.40;;;1.88;;
56413;SDS011;42318;48.452;19.526;2024-02-21T18:02:59;2.67;;;2.10;;